createdAt,value
2019-02-17T00:00:01.296Z,5.10
2019-02-17T00:00:40.393Z,5.10
2019-02-17T00:01:16.604Z,5.20
2019-02-17T00:01:51.123Z,5.20
2019-02-17T00:02:25.689Z,5.20
2019-02-17T00:03:00.321Z,5.20
2019-02-17T00:03:34.875Z,5.20
2019-02-17T00:04:09.755Z,5.20
2019-02-17T00:04:44.485Z,5.10
2019-02-17T00:05:19.052Z,5.10
2019-02-17T00:05:53.746Z,5.10
2019-02-17T00:06:28.441Z,5.10
2019-02-17T00:07:02.938Z,5.10
2019-02-17T00:07:37.522Z,5.10
2019-02-17T00:08:12.250Z,5.10
2019-02-17T00:08:47.337Z,5.10
2019-02-17T00:09:21.953Z,5.10
2019-02-17T00:09:56.723Z,5.10
2019-02-17T00:10:31.298Z,5.10
2019-02-17T00:11:05.864Z,5.10
2019-02-17T00:11:40.607Z,5.10
2019-02-17T00:12:15.656Z,5.00
2019-02-17T00:12:52.856Z,5.00
2019-02-17T00:13:27.382Z,5.00
2019-02-17T00:14:01.942Z,5.00
2019-02-17T00:14:36.720Z,5.00
2019-02-17T00:15:11.285Z,5.00
2019-02-17T00:15:45.766Z,5.00
2019-02-17T00:16:20.477Z,5.00
2019-02-17T00:16:55.007Z,5.00
2019-02-17T00:17:29.853Z,5.00
2019-02-17T00:18:04.612Z,5.00
2019-02-17T00:18:39.216Z,5.00
2019-02-17T00:19:13.761Z,5.00
2019-02-17T00:19:48.278Z,5.00
2019-02-17T00:20:22.769Z,5.00
2019-02-17T00:20:57.266Z,4.90
2019-02-17T00:21:31.831Z,4.90
2019-02-17T00:22:06.964Z,4.90
2019-02-17T00:22:41.526Z,4.90
2019-02-17T00:23:16.031Z,4.90
2019-02-17T00:23:50.619Z,4.90
2019-02-17T00:24:25.208Z,4.90
2019-02-17T00:24:59.728Z,4.90
2019-02-17T00:25:34.232Z,4.80
2019-02-17T00:26:09.726Z,4.80
2019-02-17T00:26:44.212Z,4.80
2019-02-17T00:27:18.796Z,4.80
2019-02-17T00:27:53.356Z,4.80
2019-02-17T00:28:27.886Z,4.80
2019-02-17T00:29:02.425Z,4.80
2019-02-17T00:29:37.040Z,4.80
2019-02-17T00:30:12.482Z,4.80
2019-02-17T00:30:47.037Z,4.80
2019-02-17T00:31:21.608Z,4.80
2019-02-17T00:31:56.115Z,4.80
2019-02-17T00:32:30.618Z,4.80
2019-02-17T00:33:05.205Z,4.80
2019-02-17T00:33:39.942Z,4.80
2019-02-17T00:34:14.442Z,4.80
2019-02-17T00:34:49.150Z,4.80
2019-02-17T00:35:23.648Z,4.70
2019-02-17T00:35:58.170Z,4.60
2019-02-17T00:36:32.668Z,4.60
2019-02-17T00:37:07.177Z,4.60
2019-02-17T00:37:41.752Z,4.60
2019-02-17T00:38:16.304Z,4.60
2019-02-17T00:38:50.997Z,4.60
2019-02-17T00:39:25.566Z,4.60
2019-02-17T00:40:00.212Z,4.60
2019-02-17T00:40:34.736Z,4.60
2019-02-17T00:41:09.229Z,4.60
2019-02-17T00:41:43.722Z,4.60
2019-02-17T00:42:18.329Z,4.50
2019-02-17T00:42:52.827Z,4.50
2019-02-17T00:43:27.310Z,4.50
2019-02-17T00:44:01.798Z,4.50
2019-02-17T00:44:36.326Z,4.50
2019-02-17T00:45:11.028Z,4.50
2019-02-17T00:45:45.516Z,4.50
2019-02-17T00:46:20.048Z,4.50
2019-02-17T00:46:54.567Z,4.50
2019-02-17T00:47:29.084Z,4.60
2019-02-17T00:48:03.651Z,4.60
2019-02-17T00:48:38.211Z,4.60
2019-02-17T00:49:12.788Z,4.60
2019-02-17T00:49:47.695Z,4.60
2019-02-17T00:50:22.180Z,4.60
2019-02-17T00:50:56.707Z,4.60
2019-02-17T00:51:31.505Z,4.60
2019-02-17T00:52:06.024Z,4.70
2019-02-17T00:52:40.549Z,4.70
2019-02-17T00:53:15.148Z,4.60
2019-02-17T00:53:49.662Z,4.60
2019-02-17T00:54:24.157Z,4.60
2019-02-17T00:54:58.665Z,4.60
2019-02-17T00:55:33.157Z,4.60
2019-02-17T00:56:07.653Z,4.60
2019-02-17T00:56:42.212Z,4.60
2019-02-17T00:57:16.758Z,4.60
2019-02-17T00:57:51.249Z,4.60
2019-02-17T00:58:25.736Z,4.60
2019-02-17T00:59:09.330Z,4.50
2019-02-17T00:59:36.527Z,4.50
2019-02-17T01:00:12.564Z,4.50
2019-02-17T01:00:47.066Z,4.50
2019-02-17T01:01:21.695Z,4.40
2019-02-17T01:01:57.147Z,4.40
2019-02-17T01:02:31.653Z,4.40
2019-02-17T01:03:06.156Z,4.40
2019-02-17T01:03:40.648Z,4.50
2019-02-17T01:04:15.183Z,4.50
2019-02-17T01:04:49.680Z,4.50
2019-02-17T01:05:24.187Z,4.50
2019-02-17T01:05:58.791Z,4.50
2019-02-17T01:06:33.318Z,4.50
2019-02-17T01:07:07.800Z,4.50
2019-02-17T01:07:42.305Z,4.50
2019-02-17T01:08:16.923Z,4.50
2019-02-17T01:08:51.645Z,4.40
2019-02-17T01:09:26.258Z,4.40
2019-02-17T01:10:00.778Z,4.40
2019-02-17T01:10:35.373Z,4.40
2019-02-17T01:11:09.958Z,4.40
2019-02-17T01:11:44.486Z,4.40
2019-02-17T01:12:19.254Z,4.40
2019-02-17T01:12:53.919Z,4.40
2019-02-17T01:13:28.414Z,4.40
2019-02-17T01:14:03.065Z,4.30
2019-02-17T01:14:37.634Z,4.30
2019-02-17T01:15:12.755Z,4.30
2019-02-17T01:15:47.309Z,4.20
2019-02-17T01:16:21.961Z,4.20
2019-02-17T01:16:56.869Z,4.10
2019-02-17T01:17:31.551Z,4.10
2019-02-17T01:18:07.100Z,4.10
2019-02-17T01:18:41.625Z,4.00
2019-02-17T01:19:16.130Z,4.00
2019-02-17T01:19:50.642Z,4.00
2019-02-17T01:20:25.899Z,4.00
2019-02-17T01:21:00.636Z,4.00
2019-02-17T01:21:35.305Z,4.00
2019-02-17T01:22:09.888Z,4.00
2019-02-17T01:22:44.435Z,4.10
2019-02-17T01:23:18.945Z,4.10
2019-02-17T01:23:53.435Z,4.10
2019-02-17T01:24:27.920Z,4.10
2019-02-17T01:25:02.404Z,4.10
2019-02-17T01:25:36.899Z,4.10
2019-02-17T01:26:11.457Z,4.10
2019-02-17T01:26:45.952Z,4.10
2019-02-17T01:27:20.458Z,4.00
2019-02-17T01:27:55.044Z,4.00
2019-02-17T01:28:29.673Z,4.00
2019-02-17T01:29:04.188Z,4.10
2019-02-17T01:29:38.713Z,4.10
2019-02-17T01:30:16.449Z,4.00
2019-02-17T01:30:51.006Z,4.00
2019-02-17T01:31:25.489Z,4.00
2019-02-17T01:32:00.024Z,4.00
2019-02-17T01:32:34.583Z,4.00
2019-02-17T01:33:09.073Z,4.00
2019-02-17T01:33:44.544Z,4.00
2019-02-17T01:34:19.053Z,4.00
2019-02-17T01:34:53.596Z,4.10
2019-02-17T01:35:28.189Z,4.10
2019-02-17T01:36:02.687Z,4.10
2019-02-17T01:36:37.210Z,4.10
2019-02-17T01:37:11.723Z,4.10
2019-02-17T01:37:46.230Z,4.10
2019-02-17T01:38:20.848Z,4.10
2019-02-17T01:38:55.721Z,4.00
2019-02-17T01:39:30.281Z,4.00
2019-02-17T01:40:08.122Z,4.00
2019-02-17T01:40:42.747Z,4.00
2019-02-17T01:41:17.249Z,4.00
2019-02-17T01:41:51.744Z,4.00
2019-02-17T01:42:26.301Z,4.00
2019-02-17T01:43:00.834Z,4.00
2019-02-17T01:43:35.396Z,4.00
2019-02-17T01:44:10.001Z,4.00
2019-02-17T01:44:44.498Z,4.00
2019-02-17T01:45:19.053Z,4.00
2019-02-17T01:46:12.896Z,4.00
2019-02-17T01:46:47.402Z,4.00
2019-02-17T01:47:21.973Z,3.90
2019-02-17T01:47:56.549Z,3.90
2019-02-17T01:48:31.126Z,3.90
2019-02-17T01:49:05.629Z,3.90
2019-02-17T01:49:40.124Z,3.90
2019-02-17T01:50:14.645Z,3.90
2019-02-17T01:50:49.213Z,3.90
2019-02-17T01:51:23.920Z,3.90
2019-02-17T01:51:58.472Z,4.00
2019-02-17T01:52:33.041Z,4.00
2019-02-17T01:53:07.676Z,4.00
2019-02-17T01:53:42.177Z,4.00
2019-02-17T01:54:16.843Z,4.00
2019-02-17T01:54:51.416Z,4.00
2019-02-17T01:55:25.931Z,4.00
2019-02-17T01:56:00.621Z,4.00
2019-02-17T01:56:35.199Z,4.00
2019-02-17T01:57:09.781Z,4.00
2019-02-17T01:57:44.346Z,4.00
2019-02-17T01:58:18.901Z,4.10
2019-02-17T01:58:54.743Z,4.00
2019-02-17T01:59:30.911Z,4.10
2019-02-17T02:00:15.988Z,4.00
2019-02-17T02:00:50.692Z,4.00
2019-02-17T02:01:25.215Z,4.00
2019-02-17T02:01:59.790Z,4.00
2019-02-17T02:02:34.360Z,4.00
2019-02-17T02:03:08.932Z,4.00
2019-02-17T02:03:43.869Z,4.10
2019-02-17T02:04:18.398Z,4.10
2019-02-17T02:04:52.887Z,4.10
2019-02-17T02:05:27.447Z,4.10
2019-02-17T02:06:01.947Z,4.00
2019-02-17T02:06:36.613Z,4.00
2019-02-17T02:07:11.112Z,4.00
2019-02-17T02:07:45.693Z,4.00
2019-02-17T02:08:20.198Z,4.00
2019-02-17T02:08:54.684Z,4.00
2019-02-17T02:09:29.278Z,4.00
2019-02-17T02:10:05.603Z,4.00
2019-02-17T02:10:40.231Z,4.00
2019-02-17T02:11:14.734Z,4.00
2019-02-17T02:11:49.221Z,4.00
2019-02-17T02:12:23.756Z,4.00
2019-02-17T02:12:58.320Z,4.10
2019-02-17T02:13:32.817Z,4.10
2019-02-17T02:14:07.335Z,4.10
2019-02-17T02:14:41.923Z,4.00
2019-02-17T02:15:16.456Z,4.10
2019-02-17T02:15:50.953Z,4.10
2019-02-17T02:16:25.525Z,4.00
2019-02-17T02:17:00.092Z,4.00
2019-02-17T02:17:34.657Z,4.00
2019-02-17T02:18:09.484Z,4.00
2019-02-17T02:18:44.004Z,4.00
2019-02-17T02:19:18.586Z,4.00
2019-02-17T02:19:53.148Z,4.00
2019-02-17T02:20:28.129Z,4.00
2019-02-17T02:21:03.029Z,4.00
2019-02-17T02:21:37.520Z,4.00
2019-02-17T02:22:12.480Z,3.90
2019-02-17T02:22:46.997Z,3.90
2019-02-17T02:23:21.588Z,4.00
2019-02-17T02:23:56.077Z,4.00
2019-02-17T02:24:30.589Z,4.00
2019-02-17T02:25:06.921Z,4.00
2019-02-17T02:25:41.773Z,4.00
2019-02-17T02:26:16.346Z,3.90
2019-02-17T02:26:50.927Z,3.90
2019-02-17T02:27:25.559Z,3.90
2019-02-17T02:28:00.144Z,3.90
2019-02-17T02:28:34.774Z,3.90
2019-02-17T02:29:09.252Z,3.90
2019-02-17T02:29:43.750Z,3.90
2019-02-17T02:30:18.258Z,3.90
2019-02-17T02:30:52.827Z,4.00
2019-02-17T02:31:27.391Z,3.90
2019-02-17T02:32:01.882Z,4.00
2019-02-17T02:32:36.508Z,4.00
2019-02-17T02:33:11.069Z,4.00
2019-02-17T02:33:45.679Z,4.00
2019-02-17T02:34:20.248Z,4.00
2019-02-17T02:34:54.830Z,4.00
2019-02-17T02:35:29.314Z,4.00
2019-02-17T02:36:03.812Z,4.10
2019-02-17T02:36:38.369Z,4.10
2019-02-17T02:37:12.881Z,4.10
2019-02-17T02:37:47.463Z,4.10
2019-02-17T02:38:22.044Z,4.10
2019-02-17T02:38:56.620Z,4.10
2019-02-17T02:39:31.135Z,4.10
2019-02-17T02:40:06.773Z,4.10
2019-02-17T02:40:43.246Z,4.10
2019-02-17T02:41:19.527Z,4.10
2019-02-17T02:41:54.071Z,4.10
2019-02-17T02:42:28.568Z,4.10
2019-02-17T02:43:03.166Z,4.10
2019-02-17T02:43:37.743Z,4.00
2019-02-17T02:44:12.237Z,4.00
2019-02-17T02:44:48.635Z,4.00
2019-02-17T02:45:23.177Z,4.00
2019-02-17T02:45:57.710Z,4.00
2019-02-17T02:46:32.263Z,4.00
2019-02-17T02:47:26.131Z,4.00
2019-02-17T02:48:00.713Z,4.00
2019-02-17T02:48:35.768Z,4.00
2019-02-17T02:49:10.287Z,4.00
2019-02-17T02:49:44.847Z,4.00
2019-02-17T02:50:19.370Z,4.00
2019-02-17T02:50:53.957Z,4.00
2019-02-17T02:51:28.547Z,4.00
2019-02-17T02:52:03.042Z,4.00
2019-02-17T02:52:37.550Z,4.00
2019-02-17T02:53:12.136Z,4.00
2019-02-17T02:53:46.721Z,4.00
2019-02-17T02:54:21.253Z,4.00
2019-02-17T02:54:55.834Z,4.00
2019-02-17T02:55:30.342Z,4.00
2019-02-17T02:56:05.231Z,4.00
2019-02-17T02:56:40.144Z,4.00
2019-02-17T02:57:14.640Z,4.00
2019-02-17T02:57:49.146Z,4.00
2019-02-17T02:58:23.702Z,4.00
2019-02-17T02:58:58.273Z,4.00
2019-02-17T02:59:32.908Z,4.00
2019-02-17T03:00:10.939Z,3.90
2019-02-17T03:00:45.544Z,3.90
2019-02-17T03:01:20.062Z,3.90
2019-02-17T03:01:55.937Z,3.90
2019-02-17T03:02:30.440Z,3.90
2019-02-17T03:03:05.291Z,4.00
2019-02-17T03:03:39.796Z,4.00
2019-02-17T03:04:14.311Z,4.00
2019-02-17T03:04:48.823Z,4.00
2019-02-17T03:05:23.312Z,4.00
2019-02-17T03:06:05.248Z,3.90
2019-02-17T03:06:41.430Z,4.00
2019-02-17T03:07:15.969Z,3.90
2019-02-17T03:07:50.477Z,3.90
2019-02-17T03:08:25.033Z,3.90
2019-02-17T03:08:59.571Z,3.90
2019-02-17T03:09:34.133Z,3.90
2019-02-17T03:10:09.756Z,3.90
2019-02-17T03:10:44.258Z,3.80
2019-02-17T03:11:18.753Z,3.90
2019-02-17T03:11:53.260Z,3.90
2019-02-17T03:12:29.149Z,3.90
2019-02-17T03:13:03.717Z,3.80
2019-02-17T03:13:38.242Z,3.80
2019-02-17T03:14:12.877Z,3.80
2019-02-17T03:14:47.446Z,3.90
2019-02-17T03:15:21.966Z,3.90
2019-02-17T03:15:56.605Z,3.90
2019-02-17T03:16:33.055Z,3.90
2019-02-17T03:17:07.573Z,3.90
2019-02-17T03:17:42.126Z,3.90
2019-02-17T03:18:16.619Z,3.80
2019-02-17T03:18:51.137Z,3.80
2019-02-17T03:19:25.733Z,3.80
2019-02-17T03:20:00.368Z,3.80
2019-02-17T03:20:34.922Z,3.80
2019-02-17T03:21:09.489Z,3.90
2019-02-17T03:21:44.054Z,3.90
2019-02-17T03:22:18.553Z,3.80
2019-02-17T03:22:53.080Z,3.80
2019-02-17T03:23:27.795Z,3.80
2019-02-17T03:24:02.514Z,3.80
2019-02-17T03:24:37.016Z,3.70
2019-02-17T03:25:11.514Z,3.70
2019-02-17T03:25:46.178Z,3.80
2019-02-17T03:26:23.312Z,3.70
2019-02-17T03:26:57.809Z,3.80
2019-02-17T03:27:32.313Z,3.80
2019-02-17T03:28:06.878Z,3.80
2019-02-17T03:28:41.480Z,3.80
2019-02-17T03:29:16.017Z,3.80
2019-02-17T03:29:50.573Z,3.80
2019-02-17T03:30:25.109Z,3.80
2019-02-17T03:30:59.666Z,3.80
2019-02-17T03:31:34.256Z,3.80
2019-02-17T03:32:09.463Z,3.80
2019-02-17T03:32:44.040Z,3.80
2019-02-17T03:33:18.684Z,3.80
2019-02-17T03:33:53.339Z,3.80
2019-02-17T03:34:27.900Z,3.80
2019-02-17T03:35:02.866Z,3.80
2019-02-17T03:35:37.368Z,3.80
2019-02-17T03:36:11.905Z,3.70
2019-02-17T03:36:47.484Z,3.70
2019-02-17T03:37:22.048Z,3.80
2019-02-17T03:37:56.737Z,3.80
2019-02-17T03:38:31.296Z,3.80
2019-02-17T03:39:06.452Z,3.80
2019-02-17T03:39:41.987Z,3.80
2019-02-17T03:40:16.479Z,3.70
2019-02-17T03:40:52.265Z,3.70
2019-02-17T03:41:26.907Z,3.70
2019-02-17T03:42:01.408Z,3.70
2019-02-17T03:42:36.024Z,3.70
2019-02-17T03:43:11.624Z,3.70
2019-02-17T03:43:46.127Z,3.70
2019-02-17T03:44:20.684Z,3.70
2019-02-17T03:44:55.216Z,3.60
2019-02-17T03:45:29.734Z,3.60
2019-02-17T03:46:04.296Z,3.60
2019-02-17T03:46:38.865Z,3.60
2019-02-17T03:47:13.358Z,3.60
2019-02-17T03:47:47.855Z,3.60
2019-02-17T03:48:22.404Z,3.60
2019-02-17T03:48:56.920Z,3.60
2019-02-17T03:49:31.456Z,3.50
2019-02-17T03:50:07.406Z,3.50
2019-02-17T03:50:49.455Z,3.50
2019-02-17T03:51:25.032Z,3.50
2019-02-17T03:51:59.731Z,3.50
2019-02-17T03:52:34.395Z,3.50
2019-02-17T03:53:08.968Z,3.50
2019-02-17T03:53:43.493Z,3.50
2019-02-17T03:54:18.075Z,3.50
2019-02-17T03:54:52.744Z,3.50
2019-02-17T03:55:27.281Z,3.50
2019-02-17T03:56:01.846Z,3.50
2019-02-17T03:56:36.344Z,3.50
2019-02-17T03:57:10.912Z,3.50
2019-02-17T03:57:45.467Z,3.60
2019-02-17T03:58:19.953Z,3.50
2019-02-17T03:58:54.650Z,3.50
2019-02-17T03:59:29.197Z,3.50
2019-02-17T04:00:16.071Z,3.50
2019-02-17T04:00:41.699Z,3.40
2019-02-17T04:01:16.261Z,3.50
2019-02-17T04:01:50.886Z,3.50
2019-02-17T04:02:25.422Z,3.50
2019-02-17T04:03:00.019Z,3.60
2019-02-17T04:03:34.597Z,3.60
2019-02-17T04:04:10.075Z,3.60
2019-02-17T04:04:44.574Z,3.60
2019-02-17T04:05:19.140Z,3.60
2019-02-17T04:05:53.663Z,3.60
2019-02-17T04:06:28.334Z,3.60
2019-02-17T04:07:02.901Z,3.60
2019-02-17T04:07:38.369Z,3.70
2019-02-17T04:08:12.964Z,3.60
2019-02-17T04:08:47.451Z,3.60
2019-02-17T04:09:21.979Z,3.60
2019-02-17T04:09:56.900Z,3.60
2019-02-17T04:10:31.463Z,3.60
2019-02-17T04:11:05.975Z,3.60
2019-02-17T04:11:40.539Z,3.60
2019-02-17T04:12:15.035Z,3.60
2019-02-17T04:12:49.572Z,3.60
2019-02-17T04:13:24.143Z,3.60
2019-02-17T04:13:58.634Z,3.60
2019-02-17T04:14:33.216Z,3.60
2019-02-17T04:15:08.540Z,3.60
2019-02-17T04:15:43.036Z,3.60
2019-02-17T04:16:17.611Z,3.60
2019-02-17T04:16:52.168Z,3.60
2019-02-17T04:17:26.993Z,3.60
2019-02-17T04:18:01.493Z,3.60
2019-02-17T04:18:36.076Z,3.50
2019-02-17T04:19:10.646Z,3.50
2019-02-17T04:19:45.220Z,3.50
2019-02-17T04:20:19.724Z,3.50
2019-02-17T04:20:54.285Z,3.40
2019-02-17T04:21:28.845Z,3.50
2019-02-17T04:22:03.343Z,3.50
2019-02-17T04:22:37.916Z,3.50
2019-02-17T04:23:12.409Z,3.50
2019-02-17T04:23:47.097Z,3.50
2019-02-17T04:24:21.599Z,3.50
2019-02-17T04:24:56.170Z,3.40
2019-02-17T04:25:30.773Z,3.50
2019-02-17T04:26:05.921Z,3.50
2019-02-17T04:26:40.524Z,3.50
2019-02-17T04:27:15.041Z,3.40
2019-02-17T04:27:49.614Z,3.50
2019-02-17T04:28:24.265Z,3.50
2019-02-17T04:28:58.828Z,3.50
2019-02-17T04:29:33.425Z,3.50
2019-02-17T04:30:08.083Z,3.50
2019-02-17T04:30:42.824Z,3.50
2019-02-17T04:31:17.415Z,3.50
2019-02-17T04:31:52.286Z,3.40
2019-02-17T04:32:27.055Z,3.40
2019-02-17T04:33:01.596Z,3.40
2019-02-17T04:33:36.234Z,3.40
2019-02-17T04:34:10.833Z,3.40
2019-02-17T04:34:45.421Z,3.40
2019-02-17T04:35:20.002Z,3.40
2019-02-17T04:35:54.566Z,3.40
2019-02-17T04:36:29.138Z,3.40
2019-02-17T04:37:03.631Z,3.50
2019-02-17T04:37:38.120Z,3.50
2019-02-17T04:38:12.644Z,3.50
2019-02-17T04:38:47.206Z,3.50
2019-02-17T04:39:21.795Z,3.50
2019-02-17T04:39:56.376Z,3.50
2019-02-17T04:40:30.975Z,3.50
2019-02-17T04:41:05.611Z,3.50
2019-02-17T04:41:40.130Z,3.50
2019-02-17T04:42:14.645Z,3.60
2019-02-17T04:42:49.141Z,3.60
2019-02-17T04:43:23.663Z,3.60
2019-02-17T04:43:58.184Z,3.60
2019-02-17T04:44:32.818Z,3.60
2019-02-17T04:45:07.972Z,3.60
2019-02-17T04:45:42.533Z,3.60
2019-02-17T04:46:17.039Z,3.60
2019-02-17T04:46:51.614Z,3.60
2019-02-17T04:47:27.388Z,3.60
2019-02-17T04:48:01.899Z,3.50
2019-02-17T04:48:36.485Z,3.50
2019-02-17T04:49:11.040Z,3.50
2019-02-17T04:49:47.207Z,3.50
2019-02-17T04:50:21.850Z,3.60
2019-02-17T04:50:56.332Z,3.60
2019-02-17T04:51:31.193Z,3.50
2019-02-17T04:52:05.786Z,3.50
2019-02-17T04:52:40.378Z,3.50
2019-02-17T04:53:14.980Z,3.60
2019-02-17T04:53:49.549Z,3.60
2019-02-17T04:54:24.052Z,3.60
2019-02-17T04:54:58.719Z,3.60
2019-02-17T04:55:33.347Z,3.60
2019-02-17T04:56:07.890Z,3.60
2019-02-17T04:56:42.454Z,3.60
2019-02-17T04:57:16.959Z,3.60
2019-02-17T04:57:51.496Z,3.60
2019-02-17T04:58:26.001Z,3.50
2019-02-17T04:59:00.555Z,3.50
2019-02-17T04:59:35.122Z,3.60
2019-02-17T05:00:10.309Z,3.60
2019-02-17T05:00:44.865Z,3.60
2019-02-17T05:01:19.361Z,3.60
2019-02-17T05:01:53.877Z,3.60
2019-02-17T05:02:28.400Z,3.60
2019-02-17T05:03:02.956Z,3.60
2019-02-17T05:03:37.526Z,3.60
2019-02-17T05:04:13.525Z,3.60
2019-02-17T05:04:48.120Z,3.60
2019-02-17T05:05:24.165Z,3.60
2019-02-17T05:05:58.881Z,3.60
2019-02-17T05:06:33.534Z,3.60
2019-02-17T05:07:15.853Z,3.60
2019-02-17T05:07:50.421Z,3.60
2019-02-17T05:08:24.991Z,3.60
2019-02-17T05:08:59.590Z,3.70
2019-02-17T05:09:34.291Z,3.60
2019-02-17T05:10:08.797Z,3.70
2019-02-17T05:10:43.405Z,3.60
2019-02-17T05:11:17.996Z,3.60
2019-02-17T05:11:52.630Z,3.70
2019-02-17T05:12:28.293Z,3.70
2019-02-17T05:13:02.856Z,3.70
2019-02-17T05:13:37.400Z,3.70
2019-02-17T05:14:13.005Z,3.70
2019-02-17T05:14:47.648Z,3.70
2019-02-17T05:15:22.154Z,3.70
2019-02-17T05:15:56.775Z,3.70
2019-02-17T05:16:31.345Z,3.70
2019-02-17T05:17:06.101Z,3.70
2019-02-17T05:17:40.594Z,3.80
2019-02-17T05:18:15.361Z,3.80
2019-02-17T05:18:49.949Z,3.80
2019-02-17T05:19:24.510Z,3.80
2019-02-17T05:19:59.064Z,3.80
2019-02-17T05:20:33.692Z,3.80
2019-02-17T05:21:08.245Z,3.90
2019-02-17T05:21:42.748Z,3.80
2019-02-17T05:22:17.313Z,3.80
2019-02-17T05:22:51.990Z,3.90
2019-02-17T05:23:26.633Z,3.90
2019-02-17T05:24:01.133Z,3.90
2019-02-17T05:24:35.655Z,3.90
2019-02-17T05:25:10.330Z,3.90
2019-02-17T05:25:44.938Z,3.90
2019-02-17T05:26:19.552Z,3.90
2019-02-17T05:26:54.089Z,3.90
2019-02-17T05:27:28.680Z,4.00
2019-02-17T05:28:03.230Z,4.00
2019-02-17T05:28:37.718Z,4.00
2019-02-17T05:29:12.263Z,4.00
2019-02-17T05:29:46.898Z,4.00
2019-02-17T05:30:21.393Z,4.00
2019-02-17T05:30:55.885Z,4.00
2019-02-17T05:31:30.453Z,4.00
2019-02-17T05:32:05.020Z,4.00
2019-02-17T05:32:39.494Z,4.00
2019-02-17T05:33:13.982Z,4.00
2019-02-17T05:33:48.477Z,4.00
2019-02-17T05:34:23.034Z,4.00
2019-02-17T05:34:59.035Z,4.00
2019-02-17T05:35:33.732Z,4.00
2019-02-17T05:36:08.278Z,4.00
2019-02-17T05:36:42.809Z,4.00
2019-02-17T05:37:17.375Z,4.10
2019-02-17T05:37:51.991Z,4.10
2019-02-17T05:38:26.600Z,4.10
2019-02-17T05:39:01.104Z,4.20
2019-02-17T05:39:35.748Z,4.20
2019-02-17T05:40:10.252Z,4.20
2019-02-17T05:40:44.758Z,4.10
2019-02-17T05:41:19.344Z,4.10
2019-02-17T05:41:53.921Z,4.20
2019-02-17T05:42:29.031Z,4.20
2019-02-17T05:43:03.693Z,4.20
2019-02-17T05:43:38.193Z,4.20
2019-02-17T05:44:13.085Z,4.20
2019-02-17T05:44:47.668Z,4.20
2019-02-17T05:45:22.332Z,4.20
2019-02-17T05:45:56.837Z,4.20
2019-02-17T05:46:31.320Z,4.20
2019-02-17T05:47:05.826Z,4.30
2019-02-17T05:47:40.353Z,4.30
2019-02-17T05:48:15.105Z,4.30
2019-02-17T05:48:49.603Z,4.30
2019-02-17T05:49:24.225Z,4.30
2019-02-17T05:49:58.738Z,4.30
2019-02-17T05:50:33.311Z,4.30
2019-02-17T05:51:07.848Z,4.30
2019-02-17T05:51:42.457Z,4.30
2019-02-17T05:52:16.946Z,4.30
2019-02-17T05:52:51.437Z,4.20
2019-02-17T05:53:25.923Z,4.20
2019-02-17T05:54:00.511Z,4.20
2019-02-17T05:54:35.073Z,4.20
2019-02-17T05:55:09.670Z,4.30
2019-02-17T05:55:44.329Z,4.30
2019-02-17T05:56:18.918Z,4.20
2019-02-17T05:56:55.554Z,4.20
2019-02-17T05:57:30.123Z,4.20
2019-02-17T05:58:04.618Z,4.20
2019-02-17T05:58:39.262Z,4.20
2019-02-17T05:59:13.824Z,4.20
2019-02-17T05:59:48.338Z,4.20
2019-02-17T06:00:24.195Z,4.20
2019-02-17T06:01:03.911Z,4.20
2019-02-17T06:01:35.003Z,4.20
2019-02-17T06:02:09.515Z,4.20
2019-02-17T06:02:44.005Z,4.10
2019-02-17T06:03:18.581Z,4.20
2019-02-17T06:03:53.143Z,4.20
2019-02-17T06:04:27.982Z,4.20
2019-02-17T06:05:02.575Z,4.20
2019-02-17T06:05:37.138Z,4.20
2019-02-17T06:06:11.704Z,4.20
2019-02-17T06:06:46.686Z,4.20
2019-02-17T06:07:21.269Z,4.20
2019-02-17T06:07:55.848Z,4.20
2019-02-17T06:08:30.632Z,4.20
2019-02-17T06:09:06.406Z,4.30
2019-02-17T06:09:41.028Z,4.30
2019-02-17T06:10:15.649Z,4.30
2019-02-17T06:10:50.220Z,4.30
2019-02-17T06:11:24.967Z,4.30
2019-02-17T06:11:59.561Z,4.30
2019-02-17T06:12:34.398Z,4.30
2019-02-17T06:13:09.035Z,4.30
2019-02-17T06:13:43.850Z,4.30
2019-02-17T06:14:18.362Z,4.30
2019-02-17T06:14:52.849Z,4.30
2019-02-17T06:15:27.398Z,4.40
2019-02-17T06:16:03.495Z,4.40
2019-02-17T06:16:39.680Z,4.40
2019-02-17T06:17:14.306Z,4.40
2019-02-17T06:17:48.861Z,4.30
2019-02-17T06:18:23.559Z,4.30
2019-02-17T06:18:58.066Z,4.30
2019-02-17T06:19:32.638Z,4.30
2019-02-17T06:20:10.124Z,4.30
2019-02-17T06:20:44.623Z,4.30
2019-02-17T06:21:19.237Z,4.20
2019-02-17T06:21:53.796Z,4.20
2019-02-17T06:22:28.455Z,4.20
2019-02-17T06:23:03.062Z,4.30
2019-02-17T06:23:37.617Z,4.30
2019-02-17T06:24:12.805Z,4.30
2019-02-17T06:24:47.449Z,4.30
2019-02-17T06:25:22.140Z,4.30
2019-02-17T06:25:56.726Z,4.30
2019-02-17T06:26:31.305Z,4.30
2019-02-17T06:27:05.951Z,4.30
2019-02-17T06:27:40.520Z,4.20
2019-02-17T06:28:15.168Z,4.30
2019-02-17T06:28:49.849Z,4.30
2019-02-17T06:29:24.356Z,4.30
2019-02-17T06:29:58.925Z,4.30
2019-02-17T06:30:33.780Z,4.30
2019-02-17T06:31:14.375Z,4.40
2019-02-17T06:31:45.910Z,4.40
2019-02-17T06:32:20.534Z,4.40
2019-02-17T06:32:57.414Z,4.30
2019-02-17T06:33:34.327Z,4.30
2019-02-17T06:34:08.976Z,4.30
2019-02-17T06:34:43.523Z,4.30
2019-02-17T06:35:18.238Z,4.30
2019-02-17T06:35:52.813Z,4.30
2019-02-17T06:36:27.374Z,4.30
2019-02-17T06:37:01.917Z,4.30
2019-02-17T06:37:36.458Z,4.30
2019-02-17T06:38:11.146Z,4.30
2019-02-17T06:38:45.765Z,4.30
2019-02-17T06:39:20.328Z,4.30
2019-02-17T06:39:55.030Z,4.30
2019-02-17T06:40:29.601Z,4.30
2019-02-17T06:41:04.183Z,4.20
2019-02-17T06:41:38.693Z,4.30
2019-02-17T06:42:13.201Z,4.20
2019-02-17T06:42:47.789Z,4.20
2019-02-17T06:43:22.779Z,4.20
2019-02-17T06:43:57.278Z,4.20
2019-02-17T06:44:31.870Z,4.20
2019-02-17T06:45:08.619Z,4.20
2019-02-17T06:45:43.206Z,4.20
2019-02-17T06:46:19.447Z,4.20
2019-02-17T06:46:56.234Z,4.20
2019-02-17T06:47:32.295Z,4.20
2019-02-17T06:48:06.933Z,4.30
2019-02-17T06:48:41.438Z,4.20
2019-02-17T06:49:16.191Z,4.30
2019-02-17T06:49:50.966Z,4.30
2019-02-17T06:50:25.450Z,4.30
2019-02-17T06:50:59.962Z,4.30
2019-02-17T06:51:34.458Z,4.30
2019-02-17T06:52:09.022Z,4.30
2019-02-17T06:52:43.588Z,4.30
2019-02-17T06:53:18.204Z,4.30
2019-02-17T06:53:52.772Z,4.30
2019-02-17T06:54:28.616Z,4.30
2019-02-17T06:55:07.713Z,4.30
2019-02-17T06:55:44.020Z,4.30
2019-02-17T06:56:22.862Z,4.30
2019-02-17T06:56:59.086Z,4.30
2019-02-17T06:57:35.320Z,4.30
2019-02-17T06:58:09.830Z,4.30
2019-02-17T06:58:44.365Z,4.20
2019-02-17T06:59:18.946Z,4.30
2019-02-17T06:59:55.149Z,4.30
2019-02-17T07:00:31.375Z,4.30
2019-02-17T07:01:05.937Z,4.30
2019-02-17T07:01:40.449Z,4.20
2019-02-17T07:02:14.992Z,4.30
2019-02-17T07:02:49.529Z,4.30
2019-02-17T07:03:24.025Z,4.30
2019-02-17T07:03:58.619Z,4.20
2019-02-17T07:04:46.724Z,4.20
2019-02-17T07:05:25.805Z,4.30
2019-02-17T07:06:02.021Z,4.30
2019-02-17T07:06:38.241Z,4.30
2019-02-17T07:07:12.800Z,4.30
2019-02-17T07:07:47.320Z,4.30
2019-02-17T07:08:21.851Z,4.30
2019-02-17T07:08:56.364Z,4.40
2019-02-17T07:09:31.043Z,4.40
2019-02-17T07:10:06.015Z,4.40
2019-02-17T07:10:40.567Z,4.40
2019-02-17T07:11:15.123Z,4.40
2019-02-17T07:11:49.707Z,4.30
2019-02-17T07:12:24.393Z,4.30
2019-02-17T07:12:58.928Z,4.30
2019-02-17T07:13:33.430Z,4.40
2019-02-17T07:14:07.920Z,4.40
2019-02-17T07:14:42.416Z,4.40
2019-02-17T07:15:16.986Z,4.50
2019-02-17T07:15:51.592Z,4.50
2019-02-17T07:16:26.228Z,4.50
2019-02-17T07:17:00.752Z,4.50
2019-02-17T07:17:35.251Z,4.50
2019-02-17T07:18:09.807Z,4.50
2019-02-17T07:18:44.360Z,4.50
2019-02-17T07:19:18.865Z,4.50
2019-02-17T07:19:53.459Z,4.60
2019-02-17T07:20:28.012Z,4.60
2019-02-17T07:21:02.561Z,4.60
2019-02-17T07:21:37.130Z,4.50
2019-02-17T07:22:11.719Z,4.60
2019-02-17T07:22:46.468Z,4.60
2019-02-17T07:23:20.984Z,4.50
2019-02-17T07:23:55.481Z,4.60
2019-02-17T07:24:30.188Z,4.50
2019-02-17T07:25:05.155Z,4.60
2019-02-17T07:25:39.730Z,4.60
2019-02-17T07:26:14.473Z,4.60
2019-02-17T07:26:49.078Z,4.70
2019-02-17T07:27:23.642Z,4.70
2019-02-17T07:27:58.159Z,4.70
2019-02-17T07:28:32.708Z,4.80
2019-02-17T07:29:07.219Z,4.80
2019-02-17T07:29:41.703Z,4.80
2019-02-17T07:30:16.257Z,4.90
2019-02-17T07:30:50.909Z,5.00
2019-02-17T07:31:34.683Z,5.00
2019-02-17T07:32:01.672Z,5.00
2019-02-17T07:32:36.228Z,5.00
2019-02-17T07:33:10.728Z,5.00
2019-02-17T07:33:45.235Z,5.00
2019-02-17T07:34:19.858Z,5.10
2019-02-17T07:34:54.358Z,5.10
2019-02-17T07:35:28.845Z,5.10
2019-02-17T07:36:03.354Z,5.20
2019-02-17T07:36:37.873Z,5.20
2019-02-17T07:37:12.380Z,5.20
2019-02-17T07:37:46.947Z,5.20
2019-02-17T07:38:21.435Z,5.30
2019-02-17T07:38:56.026Z,5.30
2019-02-17T07:39:30.567Z,5.40
2019-02-17T07:40:06.498Z,5.40
2019-02-17T07:40:40.993Z,5.50
2019-02-17T07:41:15.488Z,5.50
2019-02-17T07:41:51.256Z,5.50
2019-02-17T07:42:25.747Z,5.60
2019-02-17T07:43:00.325Z,5.60
2019-02-17T07:43:34.821Z,5.60